Bear Mountain, New York
Current Conditions -  °F | °C
As of 3:45 AM on Tuesday 21 Oct 2014 (Local Time) from KSWF Reporting Station
Broken Clouds Broken Clouds  
Wind Chill: 52°   Ceiling: 5000
Heat Index: 52°   Visibility: 10mi
Dew Point: 43°   Wind: 0mph
Humidity: 71%   Direction: NA
Pressure: 29.91"   Gusts: NA
Location:  41.31°N, 73.99°W
Report Text: KSWF 210745Z 00000KT 10SM BKN050 11/06 A2991
Loading
Personal Weather Stations






























Interactive Weather Map
Tropical Storm Tracking
New forecast layout! Learn more

10-Day Weather Forecast

Advertisements
Track Severe Weather on mobile